createdAt,value
2017-10-19T00:01:03.748Z,28.70
2017-10-19T00:03:31.710Z,18.53
2017-10-19T00:05:59.669Z,26.93
2017-10-19T00:08:27.625Z,31.13
2017-10-19T00:10:55.603Z,22.33
2017-10-19T00:13:23.561Z,19.50
2017-10-19T00:15:51.533Z,20.10
2017-10-19T00:18:19.554Z,23.63
2017-10-19T00:20:47.506Z,23.67
2017-10-19T00:23:15.475Z,17.90
2017-10-19T00:25:43.410Z,19.17
2017-10-19T00:28:11.460Z,24.57
2017-10-19T00:30:39.414Z,22.47
2017-10-19T00:33:07.365Z,17.23
2017-10-19T00:35:35.324Z,24.03
2017-10-19T00:38:03.288Z,15.07
2017-10-19T00:40:31.233Z,15.43
2017-10-19T00:42:59.160Z,29.40
2017-10-19T00:45:27.104Z,20.80
2017-10-19T00:47:55.070Z,24.10
2017-10-19T00:50:23.026Z,22.60
2017-10-19T00:52:51.150Z,15.50
2017-10-19T00:55:19.086Z,19.73
2017-10-19T00:57:47.058Z,19.07
2017-10-19T01:00:15.011Z,18.67
2017-10-19T01:02:43.025Z,21.90
2017-10-19T01:05:10.982Z,18.87
2017-10-19T01:07:38.927Z,17.97
2017-10-19T01:10:06.885Z,19.23
2017-10-19T01:12:34.846Z,13.37
2017-10-19T01:15:02.838Z,17.90
2017-10-19T01:17:30.787Z,16.13
2017-10-19T01:19:58.757Z,16.83
2017-10-19T01:22:26.696Z,17.27
2017-10-19T01:24:54.678Z,16.33
2017-10-19T01:27:22.617Z,12.30
2017-10-19T01:29:50.572Z,16.83
2017-10-19T01:32:18.537Z,14.60
2017-10-19T01:34:46.473Z,17.27
2017-10-19T01:37:14.451Z,20.60
2017-10-19T01:39:42.410Z,18.30
2017-10-19T01:42:10.379Z,18.57
2017-10-19T01:44:38.349Z,19.47
2017-10-19T01:47:06.298Z,21.07
2017-10-19T01:49:45.985Z,13.37
2017-10-19T01:52:13.946Z,17.23
2017-10-19T01:54:41.916Z,14.83
2017-10-19T01:57:09.894Z,17.87
2017-10-19T01:59:37.888Z,21.10
2017-10-19T02:02:05.854Z,17.83
2017-10-19T02:04:33.814Z,18.63
2017-10-19T02:07:01.761Z,12.47
2017-10-19T02:09:29.761Z,16.60
2017-10-19T02:11:57.746Z,21.63
2017-10-19T02:14:28.846Z,15.37
2017-10-19T02:16:56.805Z,22.13
2017-10-19T02:19:24.738Z,21.90
2017-10-19T02:21:52.698Z,15.47
2017-10-19T02:24:20.640Z,14.33
2017-10-19T02:26:48.664Z,20.17
2017-10-19T02:29:16.620Z,17.60
2017-10-19T02:31:44.579Z,15.83
2017-10-19T02:34:12.553Z,16.17
2017-10-19T02:36:40.471Z,17.80
2017-10-19T02:39:08.465Z,13.23
2017-10-19T02:41:36.406Z,17.77
2017-10-19T02:44:04.357Z,21.90
2017-10-19T02:46:32.362Z,12.53
2017-10-19T02:49:00.338Z,14.80
2017-10-19T02:51:28.303Z,18.00
2017-10-19T02:53:56.252Z,19.27
2017-10-19T02:56:24.243Z,16.87
2017-10-19T02:58:52.213Z,15.90
2017-10-19T03:01:20.243Z,15.50
2017-10-19T03:03:48.216Z,16.30
2017-10-19T03:06:16.195Z,17.33
2017-10-19T03:08:44.138Z,14.17
2017-10-19T03:11:12.082Z,13.53
2017-10-19T03:13:40.010Z,14.80
2017-10-19T03:16:07.950Z,15.30
2017-10-19T03:18:35.886Z,15.87
2017-10-19T03:21:03.841Z,11.83
2017-10-19T03:23:31.806Z,15.63
2017-10-19T03:25:59.738Z,15.40
2017-10-19T03:28:27.708Z,18.07
2017-10-19T03:30:55.632Z,14.33
2017-10-19T03:33:23.992Z,16.57
2017-10-19T03:35:51.947Z,19.57
2017-10-19T03:38:19.966Z,17.70
2017-10-19T03:40:47.880Z,18.03
2017-10-19T03:43:15.830Z,19.00
2017-10-19T03:45:43.805Z,17.43
2017-10-19T03:48:11.743Z,14.53
2017-10-19T03:50:39.691Z,19.43
2017-10-19T03:53:07.648Z,20.50
2017-10-19T03:55:35.605Z,15.20
2017-10-19T03:58:03.575Z,26.73
2017-10-19T04:00:31.508Z,15.37
2017-10-19T04:02:59.474Z,16.13
2017-10-19T04:05:27.423Z,17.17
2017-10-19T04:07:55.387Z,18.93
2017-10-19T04:10:23.342Z,16.53
2017-10-19T04:12:51.296Z,14.40
2017-10-19T04:15:19.249Z,11.70
2017-10-19T04:17:47.189Z,14.20
2017-10-19T04:20:15.162Z,13.80
2017-10-19T04:22:43.122Z,13.03
2017-10-19T04:25:11.091Z,18.97
2017-10-19T04:27:39.039Z,11.50
2017-10-19T04:30:06.997Z,17.70
2017-10-19T04:32:35.073Z,11.90
2017-10-19T04:35:03.036Z,17.70
2017-10-19T04:37:31.001Z,16.73
2017-10-19T04:39:58.988Z,21.67
2017-10-19T04:42:26.922Z,16.23
2017-10-19T04:44:54.896Z,17.80
2017-10-19T04:47:22.834Z,16.53
2017-10-19T04:49:51.629Z,15.30
2017-10-19T04:52:19.591Z,18.47
2017-10-19T04:54:47.528Z,12.03
2017-10-19T04:57:15.486Z,18.33
2017-10-19T04:59:43.431Z,18.17
2017-10-19T05:02:11.387Z,16.00
2017-10-19T05:04:39.322Z,13.90
2017-10-19T05:07:07.286Z,22.03
2017-10-19T05:09:35.226Z,16.40
2017-10-19T05:12:03.156Z,17.80
2017-10-19T05:14:31.090Z,18.90
2017-10-19T05:16:59.029Z,17.30
2017-10-19T05:19:26.975Z,13.63
2017-10-19T05:21:54.914Z,13.60
2017-10-19T05:24:22.910Z,19.37
2017-10-19T05:26:50.895Z,17.50
2017-10-19T05:29:18.866Z,17.83
2017-10-19T05:31:46.854Z,17.63
2017-10-19T05:34:14.857Z,19.57
2017-10-19T05:36:42.832Z,16.20
2017-10-19T05:39:10.790Z,21.23
2017-10-19T05:41:38.820Z,16.03
2017-10-19T05:44:06.763Z,18.67
2017-10-19T05:46:34.736Z,17.00
2017-10-19T05:49:02.715Z,19.20
2017-10-19T05:51:30.668Z,20.60
2017-10-19T05:53:58.710Z,16.90
2017-10-19T05:56:27.493Z,14.53
2017-10-19T05:58:55.440Z,19.97
2017-10-19T06:01:23.431Z,19.33
2017-10-19T06:03:51.522Z,17.73
2017-10-19T06:06:19.519Z,16.73
2017-10-19T06:08:47.547Z,14.23
2017-10-19T06:11:15.512Z,16.70
2017-10-19T06:13:43.474Z,16.00
2017-10-19T06:16:11.438Z,14.73
2017-10-19T06:18:40.045Z,21.73
2017-10-19T06:21:07.983Z,22.30
2017-10-19T06:23:35.953Z,16.00
2017-10-19T06:26:03.912Z,17.03
2017-10-19T06:28:31.856Z,19.93
2017-10-19T06:30:59.834Z,23.60
2017-10-19T06:33:27.787Z,21.70
2017-10-19T06:35:55.733Z,18.70
2017-10-19T06:38:23.737Z,27.67
2017-10-19T06:40:51.689Z,16.03
2017-10-19T06:43:19.716Z,22.23
2017-10-19T06:45:47.659Z,14.73
2017-10-19T06:48:15.597Z,22.17
2017-10-19T06:50:43.581Z,19.20
2017-10-19T06:53:11.680Z,17.10
2017-10-19T06:55:39.747Z,20.40
2017-10-19T06:58:07.692Z,24.73
2017-10-19T07:00:35.651Z,23.70
2017-10-19T07:03:03.621Z,16.03
2017-10-19T07:05:31.819Z,20.33
2017-10-19T07:07:59.789Z,17.20
2017-10-19T07:10:27.728Z,18.70
2017-10-19T07:12:55.707Z,23.97
2017-10-19T07:15:24.196Z,14.93
2017-10-19T07:17:52.151Z,22.47
2017-10-19T07:20:20.117Z,10.50
2017-10-19T07:22:48.051Z,20.10
2017-10-19T07:25:16.042Z,15.43
2017-10-19T07:27:44.011Z,20.37
2017-10-19T07:30:11.962Z,19.90
2017-10-19T07:32:39.908Z,17.50
2017-10-19T07:35:07.848Z,17.77
2017-10-19T07:37:35.782Z,23.87
2017-10-19T07:40:03.733Z,16.83
2017-10-19T07:42:31.682Z,16.00
2017-10-19T07:45:01.619Z,14.13
2017-10-19T07:47:29.592Z,29.53
2017-10-19T07:49:57.555Z,16.80
2017-10-19T07:52:25.534Z,19.13
2017-10-19T07:54:53.486Z,22.00
2017-10-19T07:57:21.499Z,14.60
2017-10-19T07:59:49.436Z,18.93
2017-10-19T08:02:18.210Z,18.20
2017-10-19T08:04:46.185Z,24.93
2017-10-19T08:07:14.142Z,15.70
2017-10-19T08:09:42.094Z,21.93
2017-10-19T08:12:10.041Z,24.63
2017-10-19T08:14:38.076Z,12.50
2017-10-19T08:17:06.052Z,13.17
2017-10-19T08:19:34.012Z,19.43
2017-10-19T08:22:01.980Z,22.50
2017-10-19T08:24:29.926Z,25.37
2017-10-19T08:26:57.911Z,18.07
2017-10-19T08:29:25.882Z,14.53
2017-10-19T08:31:53.854Z,22.67
2017-10-19T08:34:21.803Z,14.37
2017-10-19T08:36:49.803Z,15.80
2017-10-19T08:39:17.759Z,13.70
2017-10-19T08:41:45.778Z,18.27
2017-10-19T08:44:13.742Z,17.80
2017-10-19T08:46:41.673Z,22.10
2017-10-19T08:49:09.640Z,15.67
2017-10-19T08:51:37.606Z,19.20
2017-10-19T08:54:05.627Z,18.60
2017-10-19T08:56:33.564Z,14.20
2017-10-19T08:59:01.547Z,14.00
2017-10-19T09:01:29.570Z,16.70
2017-10-19T09:03:57.556Z,15.70
2017-10-19T09:06:25.531Z,17.63
2017-10-19T09:08:53.502Z,19.10
2017-10-19T09:11:21.466Z,18.33
2017-10-19T09:13:50.429Z,20.00
2017-10-19T09:16:18.436Z,15.90
2017-10-19T09:18:46.967Z,18.70
2017-10-19T09:21:14.944Z,17.73
2017-10-19T09:23:42.883Z,16.97
2017-10-19T09:26:10.827Z,20.10
2017-10-19T09:28:38.781Z,17.57
2017-10-19T09:31:06.783Z,18.10
2017-10-19T09:33:35.016Z,13.00
2017-10-19T09:36:02.970Z,18.43
2017-10-19T09:38:31.630Z,21.27
2017-10-19T09:40:59.603Z,19.23
2017-10-19T09:43:27.556Z,17.50
2017-10-19T09:45:56.105Z,22.87
2017-10-19T09:48:24.087Z,21.73
2017-10-19T09:50:52.051Z,14.53
2017-10-19T09:53:20.022Z,15.57
2017-10-19T09:55:48.023Z,16.00
2017-10-19T09:58:15.980Z,18.27
2017-10-19T10:00:43.938Z,13.47
2017-10-19T10:03:11.880Z,17.63
2017-10-19T10:05:40.493Z,18.53
2017-10-19T10:08:08.458Z,14.93
2017-10-19T10:10:36.446Z,20.67
2017-10-19T10:13:04.383Z,17.13
2017-10-19T10:15:32.413Z,18.67
2017-10-19T10:18:00.391Z,14.17
2017-10-19T10:20:28.372Z,13.27
2017-10-19T10:22:56.358Z,13.67
2017-10-19T10:25:24.322Z,17.33
2017-10-19T10:27:52.333Z,13.77
2017-10-19T10:30:20.301Z,13.63
2017-10-19T10:32:48.273Z,16.73
2017-10-19T10:35:16.274Z,18.30
2017-10-19T10:37:44.227Z,12.97
2017-10-19T10:40:12.182Z,12.83
2017-10-19T10:42:40.130Z,21.77
2017-10-19T10:45:08.102Z,13.80
2017-10-19T10:47:36.106Z,14.57
2017-10-19T10:50:04.060Z,17.17
2017-10-19T10:52:32.023Z,14.90
2017-10-19T10:55:00.854Z,17.10
2017-10-19T10:57:28.828Z,13.33
2017-10-19T10:59:56.790Z,15.47
2017-10-19T11:02:24.751Z,15.83
2017-10-19T11:04:52.718Z,18.00
2017-10-19T11:07:20.715Z,17.23
2017-10-19T11:09:48.692Z,18.57
2017-10-19T11:12:16.648Z,14.47
2017-10-19T11:14:45.188Z,23.50
2017-10-19T11:17:13.122Z,17.97
2017-10-19T11:19:41.086Z,22.60
2017-10-19T11:22:09.125Z,15.90
2017-10-19T11:24:37.177Z,19.17
2017-10-19T11:27:05.163Z,19.43
2017-10-19T11:29:33.220Z,18.60
2017-10-19T11:32:01.273Z,17.80
2017-10-19T11:34:30.279Z,17.20
2017-10-19T11:36:58.356Z,15.87
2017-10-19T11:39:26.439Z,26.43
2017-10-19T11:41:54.462Z,18.93
2017-10-19T11:44:22.511Z,21.77
2017-10-19T11:46:50.531Z,20.70
2017-10-19T11:49:18.582Z,20.93
2017-10-19T11:51:46.922Z,29.27
2017-10-19T11:54:14.978Z,22.33
2017-10-19T11:56:42.942Z,20.27
2017-10-19T11:59:11.033Z,23.53
2017-10-19T12:01:39.266Z,26.00
2017-10-19T12:04:07.262Z,25.57
2017-10-19T12:06:37.077Z,23.80
2017-10-19T12:09:05.082Z,23.17
2017-10-19T12:11:33.100Z,20.37
2017-10-19T12:14:01.057Z,26.60
2017-10-19T12:16:29.082Z,23.10
2017-10-19T12:18:57.300Z,20.87
2017-10-19T12:21:25.483Z,24.93
2017-10-19T12:23:53.752Z,24.63
2017-10-19T12:26:21.897Z,23.40
2017-10-19T12:28:50.003Z,19.43
2017-10-19T12:31:18.219Z,22.43
2017-10-19T12:33:46.341Z,18.67
2017-10-19T12:36:14.620Z,22.93
2017-10-19T12:38:42.856Z,25.93
2017-10-19T12:41:10.914Z,23.20
2017-10-19T12:43:38.898Z,26.10
2017-10-19T12:46:06.976Z,18.73
2017-10-19T12:48:35.013Z,19.70
2017-10-19T12:51:03.132Z,26.20
2017-10-19T12:53:31.120Z,17.70
2017-10-19T12:55:59.180Z,17.37
2017-10-19T12:58:27.223Z,17.77
2017-10-19T13:00:55.233Z,23.00
2017-10-19T13:03:23.960Z,20.10
2017-10-19T13:05:51.938Z,19.93
2017-10-19T13:08:19.983Z,19.97
2017-10-19T13:10:47.939Z,21.70
2017-10-19T13:13:15.898Z,21.30
2017-10-19T13:15:43.845Z,17.33
2017-10-19T13:18:11.806Z,17.83
2017-10-19T13:20:40.004Z,21.33
2017-10-19T13:23:08.381Z,24.67
2017-10-19T13:25:36.406Z,21.40
2017-10-19T13:28:04.462Z,19.83
2017-10-19T13:30:32.423Z,21.07
2017-10-19T13:33:01.170Z,21.40
2017-10-19T13:35:29.141Z,20.37
2017-10-19T13:37:57.132Z,16.93
2017-10-19T13:40:25.333Z,21.57
2017-10-19T13:42:54.395Z,16.13
2017-10-19T13:45:23.104Z,15.57
2017-10-19T13:47:51.139Z,12.00
2017-10-19T13:50:19.196Z,24.03
2017-10-19T13:52:47.191Z,18.53
2017-10-19T13:55:15.245Z,16.17
2017-10-19T13:57:43.262Z,12.73
2017-10-19T14:00:11.260Z,19.83
2017-10-19T14:02:39.311Z,22.47
2017-10-19T14:05:07.280Z,16.47
2017-10-19T14:07:35.546Z,24.23
2017-10-19T14:10:03.538Z,17.93
2017-10-19T14:12:31.488Z,16.10
2017-10-19T14:14:59.475Z,19.30
2017-10-19T14:17:27.464Z,15.10
2017-10-19T14:19:55.405Z,16.03
2017-10-19T14:22:23.483Z,17.53
2017-10-19T14:24:51.604Z,16.60
2017-10-19T14:27:19.683Z,23.00
2017-10-19T14:29:47.675Z,17.63
2017-10-19T14:32:15.634Z,15.73
2017-10-19T14:34:43.691Z,15.67
2017-10-19T14:37:11.669Z,19.53
2017-10-19T14:39:39.646Z,18.80
2017-10-19T14:42:07.688Z,21.60
2017-10-19T14:44:35.851Z,18.60
2017-10-19T14:47:03.876Z,16.60
2017-10-19T14:49:31.938Z,16.73
2017-10-19T14:52:00.625Z,19.30
2017-10-19T14:54:28.675Z,17.80
2017-10-19T14:56:56.697Z,20.20
2017-10-19T14:59:24.680Z,17.50
2017-10-19T15:01:52.633Z,22.77
2017-10-19T15:04:20.728Z,17.17
2017-10-19T15:06:48.680Z,14.33
2017-10-19T15:09:16.693Z,20.47
2017-10-19T15:11:44.702Z,17.50
2017-10-19T15:14:14.291Z,21.77
2017-10-19T15:16:42.280Z,17.40
2017-10-19T15:19:10.248Z,18.93
2017-10-19T15:21:38.232Z,18.43
2017-10-19T15:24:06.230Z,18.73
2017-10-19T15:26:34.269Z,19.07
2017-10-19T15:29:02.285Z,22.43
2017-10-19T15:31:30.338Z,18.87
2017-10-19T15:33:58.315Z,23.17
2017-10-19T15:36:26.263Z,23.57
2017-10-19T15:38:54.321Z,24.67
2017-10-19T15:41:22.265Z,18.93
2017-10-19T15:43:50.247Z,20.63
2017-10-19T15:46:18.186Z,21.73
2017-10-19T15:48:46.155Z,30.03
2017-10-19T15:51:14.112Z,23.47
2017-10-19T15:53:42.098Z,20.97
2017-10-19T15:56:10.334Z,23.57
2017-10-19T15:58:38.304Z,21.60
2017-10-19T16:01:06.269Z,29.57
2017-10-19T16:03:34.274Z,25.70
2017-10-19T16:06:02.268Z,24.23
2017-10-19T16:08:30.232Z,18.20
2017-10-19T16:10:58.181Z,25.90
2017-10-19T16:13:26.141Z,26.83
2017-10-19T16:15:54.226Z,19.47
2017-10-19T16:18:22.187Z,25.87
2017-10-19T16:20:50.784Z,25.70
2017-10-19T16:23:18.742Z,27.20
2017-10-19T16:25:46.694Z,26.10
2017-10-19T16:28:14.691Z,22.33
2017-10-19T16:30:42.651Z,24.10
2017-10-19T16:33:10.615Z,20.50
2017-10-19T16:35:38.603Z,27.70
2017-10-19T16:38:06.585Z,26.63
2017-10-19T16:40:34.545Z,28.80
2017-10-19T16:43:02.524Z,27.47
2017-10-19T16:45:30.510Z,21.73
2017-10-19T16:47:58.473Z,34.23
2017-10-19T16:50:26.426Z,28.33
2017-10-19T16:52:54.419Z,25.43
2017-10-19T16:55:22.418Z,25.80
2017-10-19T16:57:50.385Z,26.50
2017-10-19T17:00:18.339Z,27.27
2017-10-19T17:02:46.305Z,23.30
2017-10-19T17:05:14.281Z,29.17
2017-10-19T17:07:42.264Z,24.23
2017-10-19T17:10:11.115Z,27.63
2017-10-19T17:12:39.130Z,24.13
2017-10-19T17:15:07.120Z,33.63
2017-10-19T17:17:35.084Z,30.90
2017-10-19T17:20:03.062Z,27.40
2017-10-19T17:22:31.025Z,26.60
2017-10-19T17:24:59.026Z,30.40
2017-10-19T17:27:27.031Z,28.97
2017-10-19T17:29:55.041Z,33.07
2017-10-19T17:32:23.052Z,25.97
2017-10-19T17:34:51.692Z,26.97
2017-10-19T17:37:19.646Z,32.10
2017-10-19T17:39:47.623Z,29.60
2017-10-19T17:42:15.635Z,31.30
2017-10-19T17:44:43.745Z,37.23
2017-10-19T17:47:11.818Z,32.60
2017-10-19T17:49:39.783Z,30.70
2017-10-19T17:52:08.422Z,29.20
2017-10-19T17:54:36.393Z,34.60
2017-10-19T17:57:04.365Z,33.43
2017-10-19T17:59:32.344Z,34.10
2017-10-19T18:02:00.311Z,32.43
2017-10-19T18:04:28.243Z,38.53
2017-10-19T18:06:56.193Z,28.10
2017-10-19T18:09:24.274Z,26.80
2017-10-19T18:11:52.231Z,38.70
2017-10-19T18:14:22.392Z,31.33
2017-10-19T18:16:50.558Z,32.23
2017-10-19T18:19:18.551Z,33.57
2017-10-19T18:21:46.507Z,35.87
2017-10-19T18:24:14.536Z,28.83
2017-10-19T18:26:42.538Z,39.43
2017-10-19T18:29:10.531Z,31.13
2017-10-19T18:31:39.548Z,36.60
2017-10-19T18:34:07.790Z,31.60
2017-10-19T18:36:36.047Z,35.70
2017-10-19T18:39:04.034Z,32.07
2017-10-19T18:41:33.130Z,33.87
2017-10-19T18:44:01.700Z,41.60
2017-10-19T18:46:29.704Z,37.00
2017-10-19T18:48:57.704Z,35.00
2017-10-19T18:51:25.704Z,36.80
2017-10-19T18:53:53.705Z,38.43
2017-10-19T18:56:21.669Z,32.97
2017-10-19T18:58:49.612Z,37.70
2017-10-19T19:01:17.585Z,36.60
2017-10-19T19:03:45.551Z,36.97
2017-10-19T19:06:13.508Z,36.63
2017-10-19T19:08:41.451Z,29.40
2017-10-19T19:11:09.503Z,39.23
2017-10-19T19:13:37.454Z,45.63
2017-10-19T19:16:05.407Z,44.17
2017-10-19T19:18:33.372Z,41.43
2017-10-19T19:21:01.451Z,40.10
2017-10-19T19:23:29.485Z,36.00
2017-10-19T19:25:57.470Z,32.87
2017-10-19T19:28:25.457Z,39.20
2017-10-19T19:30:53.487Z,35.67
2017-10-19T19:33:21.564Z,35.33
2017-10-19T19:35:49.590Z,37.43
2017-10-19T19:38:17.524Z,37.73
2017-10-19T19:40:45.510Z,48.40
2017-10-19T19:43:13.613Z,34.07
2017-10-19T19:45:42.009Z,38.93
2017-10-19T19:48:10.020Z,30.70
2017-10-19T19:50:38.060Z,36.37
2017-10-19T19:53:06.059Z,39.17
2017-10-19T19:55:34.138Z,37.33
2017-10-19T19:58:02.712Z,33.17
2017-10-19T20:00:30.680Z,37.00
2017-10-19T20:02:58.643Z,31.63
2017-10-19T20:05:26.586Z,37.23
2017-10-19T20:07:54.589Z,35.47
2017-10-19T20:10:22.583Z,35.70
2017-10-19T20:12:50.521Z,35.20
2017-10-19T20:15:18.559Z,38.53
2017-10-19T20:17:46.581Z,35.03
2017-10-19T20:20:14.667Z,32.20
2017-10-19T20:22:43.387Z,35.13
2017-10-19T20:25:11.372Z,39.50
2017-10-19T20:27:40.302Z,35.10
2017-10-19T20:30:08.366Z,36.57
2017-10-19T20:32:36.391Z,32.83
2017-10-19T20:35:04.983Z,38.30
2017-10-19T20:37:33.048Z,39.77
2017-10-19T20:40:01.093Z,39.50
2017-10-19T20:42:29.205Z,34.47
2017-10-19T20:44:57.162Z,37.73
2017-10-19T20:47:25.386Z,38.70
2017-10-19T20:49:53.396Z,38.00
2017-10-19T20:52:21.398Z,36.43
2017-10-19T20:54:49.386Z,38.00
2017-10-19T20:57:17.316Z,34.93
2017-10-19T20:59:46.217Z,36.50
2017-10-19T21:02:14.266Z,38.20
2017-10-19T21:04:42.311Z,42.93
2017-10-19T21:07:10.284Z,41.07
2017-10-19T21:09:38.258Z,40.30
2017-10-19T21:12:06.701Z,44.40
2017-10-19T21:14:34.661Z,41.00
2017-10-19T21:17:02.661Z,37.47
2017-10-19T21:19:30.658Z,43.60
2017-10-19T21:21:58.615Z,41.80
2017-10-19T21:24:27.396Z,42.00
2017-10-19T21:26:55.520Z,42.03
2017-10-19T21:29:23.539Z,39.30
2017-10-19T21:31:51.506Z,45.40
2017-10-19T21:34:19.892Z,46.57
2017-10-19T21:36:47.895Z,42.53
2017-10-19T21:39:15.923Z,45.50
2017-10-19T21:41:44.640Z,46.30
2017-10-19T21:44:12.603Z,48.70
2017-10-19T21:46:40.562Z,41.80
2017-10-19T21:49:09.444Z,42.20
2017-10-19T21:51:38.214Z,45.47
2017-10-19T21:54:06.461Z,43.10
2017-10-19T21:56:34.400Z,45.10
2017-10-19T21:59:02.486Z,45.93
2017-10-19T22:01:30.513Z,48.03
2017-10-19T22:03:58.476Z,48.20
2017-10-19T22:06:26.466Z,42.67
2017-10-19T22:08:54.578Z,46.87
2017-10-19T22:11:22.582Z,47.83
2017-10-19T22:13:50.527Z,53.20
2017-10-19T22:16:18.531Z,42.77
2017-10-19T22:18:46.593Z,49.63
2017-10-19T22:21:14.539Z,46.20
2017-10-19T22:23:42.573Z,45.00
2017-10-19T22:26:10.568Z,57.30
2017-10-19T22:28:39.214Z,50.37
2017-10-19T22:31:07.304Z,54.60
2017-10-19T22:33:35.393Z,49.17
2017-10-19T22:36:03.365Z,45.47
2017-10-19T22:38:31.447Z,53.70
2017-10-19T22:41:00.159Z,59.07
2017-10-19T22:43:28.158Z,52.83
2017-10-19T22:45:56.136Z,57.37
2017-10-19T22:48:24.513Z,54.47
2017-10-19T22:50:52.474Z,54.57
2017-10-19T22:53:20.487Z,62.50
2017-10-19T22:55:48.508Z,58.10
2017-10-19T22:58:16.524Z,53.87
2017-10-19T23:00:44.457Z,56.77
2017-10-19T23:03:12.452Z,58.67
2017-10-19T23:05:40.417Z,58.77
2017-10-19T23:08:08.433Z,59.00
2017-10-19T23:10:36.431Z,56.40
2017-10-19T23:13:04.363Z,57.33
2017-10-19T23:15:32.345Z,55.80
2017-10-19T23:18:00.306Z,57.43
2017-10-19T23:20:28.363Z,64.07
2017-10-19T23:22:56.333Z,62.23
2017-10-19T23:25:25.292Z,61.80
2017-10-19T23:27:53.278Z,61.90
2017-10-19T23:30:21.232Z,56.10
2017-10-19T23:32:49.218Z,63.90
2017-10-19T23:35:17.172Z,61.17
2017-10-19T23:37:45.155Z,64.93
2017-10-19T23:40:13.114Z,71.67
2017-10-19T23:42:41.081Z,69.70
2017-10-19T23:45:09.085Z,59.70
2017-10-19T23:47:37.030Z,64.50
2017-10-19T23:50:05.024Z,63.73
2017-10-19T23:52:32.973Z,67.07
2017-10-19T23:55:00.961Z,76.30
2017-10-19T23:57:28.946Z,73.60
2017-10-19T23:59:56.907Z,73.13
